sensor_id;sensor_type;location;lat;lon;timestamp;P1;durP1;ratioP1;P2;durP2;ratioP2
9964;SDS011;5023;53.554;9.964;2022-08-21T00:03:42;16.00;;;12.70;;
9964;SDS011;5023;53.554;9.964;2022-08-21T00:09:30;15.38;;;11.23;;
9964;SDS011;5023;53.554;9.964;2022-08-21T00:14:33;13.23;;;11.13;;
9964;SDS011;5023;53.554;9.964;2022-08-21T00:19:51;13.13;;;9.38;;
9964;SDS011;5023;53.554;9.964;2022-08-21T00:25:10;13.15;;;9.63;;
9964;SDS011;5023;53.554;9.964;2022-08-21T00:30:15;10.48;;;8.73;;
9964;SDS011;5023;53.554;9.964;2022-08-21T00:35:22;11.82;;;9.18;;
9964;SDS011;5023;53.554;9.964;2022-08-21T00:40:44;10.50;;;8.95;;
9964;SDS011;5023;53.554;9.964;2022-08-21T00:45:49;9.77;;;8.38;;
9964;SDS011;5023;53.554;9.964;2022-08-21T00:51:23;15.27;;;10.95;;
9964;SDS011;5023;53.554;9.964;2022-08-21T00:56:50;12.00;;;9.40;;
9964;SDS011;5023;53.554;9.964;2022-08-21T01:01:56;11.85;;;8.98;;
9964;SDS011;5023;53.554;9.964;2022-08-21T01:07:00;9.50;;;8.43;;
9964;SDS011;5023;53.554;9.964;2022-08-21T01:12:28;14.63;;;8.95;;
9964;SDS011;5023;53.554;9.964;2022-08-21T01:17:31;10.70;;;8.15;;
9964;SDS011;5023;53.554;9.964;2022-08-21T01:22:35;10.70;;;8.13;;
9964;SDS011;5023;53.554;9.964;2022-08-21T01:27:38;14.32;;;8.40;;
9964;SDS011;5023;53.554;9.964;2022-08-21T01:32:40;23.98;;;19.40;;
9964;SDS011;5023;53.554;9.964;2022-08-21T01:37:45;10.27;;;8.63;;
9964;SDS011;5023;53.554;9.964;2022-08-21T01:42:47;11.23;;;7.85;;
9964;SDS011;5023;53.554;9.964;2022-08-21T01:47:50;10.95;;;7.28;;
9964;SDS011;5023;53.554;9.964;2022-08-21T01:52:54;14.32;;;7.43;;
9964;SDS011;5023;53.554;9.964;2022-08-21T01:58:10;12.25;;;7.53;;
9964;SDS011;5023;53.554;9.964;2022-08-21T02:03:12;9.90;;;7.47;;
9964;SDS011;5023;53.554;9.964;2022-08-21T02:08:18;11.65;;;7.65;;
9964;SDS011;5023;53.554;9.964;2022-08-21T02:13:29;12.30;;;6.88;;
9964;SDS011;5023;53.554;9.964;2022-08-21T02:18:33;7.18;;;5.45;;
9964;SDS011;5023;53.554;9.964;2022-08-21T02:23:37;7.55;;;5.13;;
9964;SDS011;5023;53.554;9.964;2022-08-21T02:29:04;7.00;;;4.60;;
9964;SDS011;5023;53.554;9.964;2022-08-21T02:34:34;5.28;;;4.45;;
9964;SDS011;5023;53.554;9.964;2022-08-21T02:39:38;10.02;;;4.90;;
9964;SDS011;5023;53.554;9.964;2022-08-21T02:45:05;4.85;;;4.18;;
9964;SDS011;5023;53.554;9.964;2022-08-21T02:50:08;9.80;;;4.10;;
9964;SDS011;5023;53.554;9.964;2022-08-21T02:55:34;7.95;;;4.32;;
9964;SDS011;5023;53.554;9.964;2022-08-21T03:00:38;4.40;;;3.88;;
9964;SDS011;5023;53.554;9.964;2022-08-21T03:05:48;8.20;;;5.32;;
9964;SDS011;5023;53.554;9.964;2022-08-21T03:10:53;6.63;;;4.90;;
9964;SDS011;5023;53.554;9.964;2022-08-21T03:15:56;6.93;;;5.07;;
9964;SDS011;5023;53.554;9.964;2022-08-21T03:20:58;9.23;;;5.43;;
9964;SDS011;5023;53.554;9.964;2022-08-21T03:26:12;5.72;;;4.47;;
9964;SDS011;5023;53.554;9.964;2022-08-21T03:31:41;7.18;;;4.85;;
9964;SDS011;5023;53.554;9.964;2022-08-21T03:36:43;4.78;;;4.05;;
9964;SDS011;5023;53.554;9.964;2022-08-21T03:41:47;4.03;;;3.63;;
9964;SDS011;5023;53.554;9.964;2022-08-21T03:47:10;6.13;;;4.20;;
9964;SDS011;5023;53.554;9.964;2022-08-21T03:52:12;8.10;;;4.20;;
9964;SDS011;5023;53.554;9.964;2022-08-21T03:57:16;6.82;;;4.13;;
9964;SDS011;5023;53.554;9.964;2022-08-21T04:02:34;6.72;;;3.83;;
9964;SDS011;5023;53.554;9.964;2022-08-21T04:07:36;5.75;;;3.90;;
9964;SDS011;5023;53.554;9.964;2022-08-21T04:12:39;6.13;;;4.22;;
9964;SDS011;5023;53.554;9.964;2022-08-21T04:17:42;4.32;;;3.80;;
9964;SDS011;5023;53.554;9.964;2022-08-21T04:22:44;5.05;;;4.28;;
9964;SDS011;5023;53.554;9.964;2022-08-21T04:27:49;5.57;;;4.00;;
9964;SDS011;5023;53.554;9.964;2022-08-21T04:32:51;8.20;;;4.05;;
9964;SDS011;5023;53.554;9.964;2022-08-21T04:37:57;8.18;;;5.25;;
9964;SDS011;5023;53.554;9.964;2022-08-21T04:43:03;4.68;;;3.80;;
9964;SDS011;5023;53.554;9.964;2022-08-21T04:48:21;4.38;;;3.97;;
9964;SDS011;5023;53.554;9.964;2022-08-21T04:53:50;6.22;;;4.43;;
9964;SDS011;5023;53.554;9.964;2022-08-21T04:58:59;5.00;;;4.40;;
9964;SDS011;5023;53.554;9.964;2022-08-21T05:04:32;6.90;;;4.20;;
9964;SDS011;5023;53.554;9.964;2022-08-21T05:09:55;4.72;;;3.75;;
9964;SDS011;5023;53.554;9.964;2022-08-21T05:14:59;4.03;;;3.30;;
9964;SDS011;5023;53.554;9.964;2022-08-21T05:20:07;3.30;;;2.80;;
9964;SDS011;5023;53.554;9.964;2022-08-21T05:25:10;4.22;;;2.90;;
9964;SDS011;5023;53.554;9.964;2022-08-21T05:30:14;8.82;;;3.28;;
9964;SDS011;5023;53.554;9.964;2022-08-21T05:35:37;4.22;;;2.80;;
9964;SDS011;5023;53.554;9.964;2022-08-21T05:40:56;3.40;;;3.10;;
9964;SDS011;5023;53.554;9.964;2022-08-21T05:46:09;4.13;;;2.60;;
9964;SDS011;5023;53.554;9.964;2022-08-21T05:51:29;3.90;;;2.60;;
9964;SDS011;5023;53.554;9.964;2022-08-21T05:56:32;3.03;;;2.50;;
9964;SDS011;5023;53.554;9.964;2022-08-21T06:01:39;7.05;;;3.28;;
9964;SDS011;5023;53.554;9.964;2022-08-21T06:07:06;9.55;;;5.82;;
9964;SDS011;5023;53.554;9.964;2022-08-21T06:12:34;5.07;;;2.90;;
9964;SDS011;5023;53.554;9.964;2022-08-21T06:18:00;3.35;;;2.60;;
9964;SDS011;5023;53.554;9.964;2022-08-21T06:23:34;2.95;;;2.50;;
9964;SDS011;5023;53.554;9.964;2022-08-21T06:28:37;3.95;;;3.38;;
9964;SDS011;5023;53.554;9.964;2022-08-21T06:34:24;3.42;;;2.95;;
9964;SDS011;5023;53.554;9.964;2022-08-21T06:40:08;3.05;;;2.60;;
9964;SDS011;5023;53.554;9.964;2022-08-21T06:45:44;3.83;;;2.42;;
9964;SDS011;5023;53.554;9.964;2022-08-21T06:50:48;3.72;;;2.72;;
9964;SDS011;5023;53.554;9.964;2022-08-21T06:55:50;2.67;;;2.47;;
9964;SDS011;5023;53.554;9.964;2022-08-21T07:00:55;4.28;;;2.42;;
9964;SDS011;5023;53.554;9.964;2022-08-21T07:05:59;3.50;;;2.70;;
9964;SDS011;5023;53.554;9.964;2022-08-21T07:11:59;3.78;;;3.28;;
9964;SDS011;5023;53.554;9.964;2022-08-21T07:17:33;3.53;;;2.95;;
9964;SDS011;5023;53.554;9.964;2022-08-21T07:22:37;3.15;;;2.47;;
9964;SDS011;5023;53.554;9.964;2022-08-21T07:28:20;4.78;;;2.97;;
9964;SDS011;5023;53.554;9.964;2022-08-21T07:34:13;3.90;;;3.05;;
9964;SDS011;5023;53.554;9.964;2022-08-21T07:40:19;6.72;;;3.83;;
9964;SDS011;5023;53.554;9.964;2022-08-21T07:45:54;6.13;;;3.35;;
9964;SDS011;5023;53.554;9.964;2022-08-21T07:51:39;4.60;;;2.95;;
9964;SDS011;5023;53.554;9.964;2022-08-21T07:56:43;4.50;;;4.03;;
9964;SDS011;5023;53.554;9.964;2022-08-21T08:02:05;4.60;;;2.95;;
9964;SDS011;5023;53.554;9.964;2022-08-21T08:07:08;4.05;;;3.55;;
9964;SDS011;5023;53.554;9.964;2022-08-21T08:12:12;4.50;;;3.13;;
9964;SDS011;5023;53.554;9.964;2022-08-21T08:17:29;4.47;;;2.65;;
9964;SDS011;5023;53.554;9.964;2022-08-21T08:23:10;4.00;;;2.70;;
9964;SDS011;5023;53.554;9.964;2022-08-21T08:29:00;7.03;;;5.00;;
9964;SDS011;5023;53.554;9.964;2022-08-21T08:34:02;6.30;;;3.20;;
9964;SDS011;5023;53.554;9.964;2022-08-21T08:39:05;3.95;;;2.70;;
9964;SDS011;5023;53.554;9.964;2022-08-21T08:44:09;4.43;;;2.83;;
9964;SDS011;5023;53.554;9.964;2022-08-21T08:49:54;3.08;;;2.58;;
9964;SDS011;5023;53.554;9.964;2022-08-21T08:55:58;4.47;;;3.47;;
9964;SDS011;5023;53.554;9.964;2022-08-21T09:01:36;7.90;;;3.70;;
9964;SDS011;5023;53.554;9.964;2022-08-21T09:07:00;6.60;;;3.05;;
9964;SDS011;5023;53.554;9.964;2022-08-21T09:12:46;7.20;;;3.40;;
9964;SDS011;5023;53.554;9.964;2022-08-21T09:18:38;4.70;;;3.10;;
9964;SDS011;5023;53.554;9.964;2022-08-21T09:24:39;4.78;;;2.70;;
9964;SDS011;5023;53.554;9.964;2022-08-21T09:30:40;7.38;;;3.38;;
9964;SDS011;5023;53.554;9.964;2022-08-21T09:36:24;5.38;;;3.13;;
9964;SDS011;5023;53.554;9.964;2022-08-21T09:42:05;5.28;;;3.70;;
9964;SDS011;5023;53.554;9.964;2022-08-21T09:48:11;4.88;;;3.35;;
9964;SDS011;5023;53.554;9.964;2022-08-21T09:53:17;4.57;;;3.30;;
9964;SDS011;5023;53.554;9.964;2022-08-21T09:58:54;6.80;;;3.17;;
9964;SDS011;5023;53.554;9.964;2022-08-21T10:04:02;6.13;;;3.10;;
9964;SDS011;5023;53.554;9.964;2022-08-21T10:09:39;9.73;;;3.45;;
9964;SDS011;5023;53.554;9.964;2022-08-21T10:15:40;5.60;;;2.92;;
9964;SDS011;5023;53.554;9.964;2022-08-21T10:21:23;5.28;;;3.30;;
9964;SDS011;5023;53.554;9.964;2022-08-21T10:26:37;6.63;;;3.40;;
9964;SDS011;5023;53.554;9.964;2022-08-21T10:32:41;7.07;;;3.38;;
9964;SDS011;5023;53.554;9.964;2022-08-21T10:44:42;5.38;;;2.65;;
9964;SDS011;5023;53.554;9.964;2022-08-21T10:50:35;4.95;;;2.90;;
9964;SDS011;5023;53.554;9.964;2022-08-21T10:56:20;5.53;;;3.00;;
9964;SDS011;5023;53.554;9.964;2022-08-21T11:02:03;4.75;;;3.20;;
9964;SDS011;5023;53.554;9.964;2022-08-21T11:08:12;5.30;;;3.25;;
9964;SDS011;5023;53.554;9.964;2022-08-21T11:14:17;2.83;;;2.40;;
9964;SDS011;5023;53.554;9.964;2022-08-21T11:20:28;4.68;;;2.40;;
9964;SDS011;5023;53.554;9.964;2022-08-21T11:26:32;3.53;;;2.35;;
9964;SDS011;5023;53.554;9.964;2022-08-21T11:31:48;4.40;;;2.50;;
9964;SDS011;5023;53.554;9.964;2022-08-21T11:37:53;3.00;;;2.47;;
9964;SDS011;5023;53.554;9.964;2022-08-21T11:43:41;3.28;;;2.28;;
9964;SDS011;5023;53.554;9.964;2022-08-21T11:49:23;2.83;;;2.20;;
9964;SDS011;5023;53.554;9.964;2022-08-21T11:55:22;6.00;;;3.40;;
9964;SDS011;5023;53.554;9.964;2022-08-21T12:01:22;6.97;;;4.18;;
9964;SDS011;5023;53.554;9.964;2022-08-21T12:07:12;4.90;;;3.10;;
9964;SDS011;5023;53.554;9.964;2022-08-21T12:12:54;4.25;;;2.35;;
9964;SDS011;5023;53.554;9.964;2022-08-21T12:19:05;3.15;;;2.28;;
9964;SDS011;5023;53.554;9.964;2022-08-21T12:24:50;4.07;;;2.40;;
9964;SDS011;5023;53.554;9.964;2022-08-21T12:30:19;3.67;;;2.47;;
9964;SDS011;5023;53.554;9.964;2022-08-21T12:36:14;3.13;;;2.80;;
9964;SDS011;5023;53.554;9.964;2022-08-21T12:41:34;4.95;;;3.08;;
9964;SDS011;5023;53.554;9.964;2022-08-21T12:46:48;4.85;;;2.95;;
9964;SDS011;5023;53.554;9.964;2022-08-21T12:52:09;3.50;;;2.50;;
9964;SDS011;5023;53.554;9.964;2022-08-21T12:57:48;3.45;;;2.35;;
9964;SDS011;5023;53.554;9.964;2022-08-21T13:02:52;2.42;;;1.95;;
9964;SDS011;5023;53.554;9.964;2022-08-21T13:08:10;2.42;;;2.20;;
9964;SDS011;5023;53.554;9.964;2022-08-21T13:13:16;3.40;;;2.20;;
9964;SDS011;5023;53.554;9.964;2022-08-21T13:18:56;3.00;;;2.28;;
9964;SDS011;5023;53.554;9.964;2022-08-21T13:29:27;4.10;;;2.50;;
9964;SDS011;5023;53.554;9.964;2022-08-21T13:34:35;6.03;;;5.47;;
9964;SDS011;5023;53.554;9.964;2022-08-21T13:40:14;1.90;;;1.80;;
9964;SDS011;5023;53.554;9.964;2022-08-21T13:45:27;2.88;;;2.30;;
9964;SDS011;5023;53.554;9.964;2022-08-21T13:50:35;2.72;;;1.85;;
9964;SDS011;5023;53.554;9.964;2022-08-21T13:56:07;2.10;;;1.90;;
9964;SDS011;5023;53.554;9.964;2022-08-21T14:01:16;2.25;;;1.58;;
9964;SDS011;5023;53.554;9.964;2022-08-21T14:06:25;1.60;;;1.50;;
9964;SDS011;5023;53.554;9.964;2022-08-21T14:11:34;2.28;;;2.00;;
9964;SDS011;5023;53.554;9.964;2022-08-21T14:16:56;3.92;;;3.10;;
9964;SDS011;5023;53.554;9.964;2022-08-21T14:22:23;2.35;;;1.95;;
9964;SDS011;5023;53.554;9.964;2022-08-21T14:27:42;2.40;;;2.17;;
9964;SDS011;5023;53.554;9.964;2022-08-21T14:33:07;3.25;;;1.98;;
9964;SDS011;5023;53.554;9.964;2022-08-21T14:38:28;3.58;;;2.90;;
9964;SDS011;5023;53.554;9.964;2022-08-21T14:43:33;4.03;;;1.65;;
9964;SDS011;5023;53.554;9.964;2022-08-21T14:49:19;8.15;;;3.58;;
9964;SDS011;5023;53.554;9.964;2022-08-21T14:54:26;4.85;;;4.03;;
9964;SDS011;5023;53.554;9.964;2022-08-21T15:00:05;2.70;;;2.50;;
9964;SDS011;5023;53.554;9.964;2022-08-21T15:05:27;5.28;;;2.70;;
9964;SDS011;5023;53.554;9.964;2022-08-21T15:10:31;2.53;;;2.33;;
9964;SDS011;5023;53.554;9.964;2022-08-21T15:16:31;2.45;;;2.30;;
9964;SDS011;5023;53.554;9.964;2022-08-21T15:21:37;3.35;;;2.75;;
9964;SDS011;5023;53.554;9.964;2022-08-21T15:26:55;3.13;;;2.30;;
9964;SDS011;5023;53.554;9.964;2022-08-21T15:32:16;3.75;;;2.67;;
9964;SDS011;5023;53.554;9.964;2022-08-21T15:37:34;4.18;;;2.00;;
9964;SDS011;5023;53.554;9.964;2022-08-21T15:42:56;3.50;;;2.60;;
9964;SDS011;5023;53.554;9.964;2022-08-21T15:48:37;2.55;;;1.80;;
9964;SDS011;5023;53.554;9.964;2022-08-21T15:53:39;3.10;;;2.42;;
9964;SDS011;5023;53.554;9.964;2022-08-21T15:58:43;2.40;;;2.20;;
9964;SDS011;5023;53.554;9.964;2022-08-21T16:04:00;3.13;;;2.75;;
9964;SDS011;5023;53.554;9.964;2022-08-21T16:09:05;5.30;;;3.00;;
9964;SDS011;5023;53.554;9.964;2022-08-21T16:14:10;5.13;;;3.97;;
9964;SDS011;5023;53.554;9.964;2022-08-21T16:19:28;4.35;;;2.97;;
9964;SDS011;5023;53.554;9.964;2022-08-21T16:24:30;3.67;;;2.60;;
9964;SDS011;5023;53.554;9.964;2022-08-21T16:29:54;3.72;;;2.67;;
9964;SDS011;5023;53.554;9.964;2022-08-21T16:34:56;2.95;;;2.38;;
9964;SDS011;5023;53.554;9.964;2022-08-21T16:39:59;3.53;;;2.50;;
9964;SDS011;5023;53.554;9.964;2022-08-21T16:45:03;7.53;;;3.65;;
9964;SDS011;5023;53.554;9.964;2022-08-21T16:50:09;5.00;;;3.55;;
9964;SDS011;5023;53.554;9.964;2022-08-21T16:55:13;4.47;;;2.88;;
9964;SDS011;5023;53.554;9.964;2022-08-21T17:00:19;3.15;;;2.35;;
9964;SDS011;5023;53.554;9.964;2022-08-21T17:05:26;4.15;;;3.22;;
9964;SDS011;5023;53.554;9.964;2022-08-21T17:10:28;3.95;;;3.38;;
9964;SDS011;5023;53.554;9.964;2022-08-21T17:15:36;5.95;;;5.35;;
9964;SDS011;5023;53.554;9.964;2022-08-21T17:20:53;5.57;;;4.53;;
9964;SDS011;5023;53.554;9.964;2022-08-21T17:25:56;3.72;;;2.90;;
9964;SDS011;5023;53.554;9.964;2022-08-21T17:31:01;4.55;;;4.15;;
9964;SDS011;5023;53.554;9.964;2022-08-21T17:36:21;5.82;;;5.22;;
9964;SDS011;5023;53.554;9.964;2022-08-21T17:41:25;3.22;;;2.80;;
9964;SDS011;5023;53.554;9.964;2022-08-21T17:46:33;6.65;;;5.80;;
9964;SDS011;5023;53.554;9.964;2022-08-21T17:51:56;5.97;;;3.90;;
9964;SDS011;5023;53.554;9.964;2022-08-21T17:57:02;3.63;;;2.60;;
9964;SDS011;5023;53.554;9.964;2022-08-21T18:02:07;3.65;;;2.60;;
9964;SDS011;5023;53.554;9.964;2022-08-21T18:07:23;3.45;;;2.67;;
9964;SDS011;5023;53.554;9.964;2022-08-21T18:12:29;6.68;;;3.10;;
9964;SDS011;5023;53.554;9.964;2022-08-21T18:17:37;5.50;;;4.18;;
9964;SDS011;5023;53.554;9.964;2022-08-21T18:22:57;5.38;;;2.63;;
9964;SDS011;5023;53.554;9.964;2022-08-21T18:28:14;4.38;;;2.75;;
9964;SDS011;5023;53.554;9.964;2022-08-21T18:33:33;3.83;;;2.55;;
9964;SDS011;5023;53.554;9.964;2022-08-21T18:39:22;5.50;;;2.97;;
9964;SDS011;5023;53.554;9.964;2022-08-21T18:44:38;10.18;;;3.60;;
9964;SDS011;5023;53.554;9.964;2022-08-21T18:49:48;12.63;;;9.32;;
9964;SDS011;5023;53.554;9.964;2022-08-21T18:55:35;6.53;;;3.50;;
9964;SDS011;5023;53.554;9.964;2022-08-21T19:00:39;5.30;;;3.15;;
9964;SDS011;5023;53.554;9.964;2022-08-21T19:06:05;8.43;;;3.05;;
9964;SDS011;5023;53.554;9.964;2022-08-21T19:11:40;4.88;;;4.13;;
9964;SDS011;5023;53.554;9.964;2022-08-21T19:17:03;6.45;;;3.60;;
9964;SDS011;5023;53.554;9.964;2022-08-21T19:22:09;8.45;;;5.90;;
9964;SDS011;5023;53.554;9.964;2022-08-21T19:27:11;7.32;;;4.40;;
9964;SDS011;5023;53.554;9.964;2022-08-21T19:32:14;6.90;;;3.83;;
9964;SDS011;5023;53.554;9.964;2022-08-21T19:37:19;10.45;;;6.65;;
9964;SDS011;5023;53.554;9.964;2022-08-21T19:42:24;7.93;;;3.50;;
9964;SDS011;5023;53.554;9.964;2022-08-21T19:47:26;7.97;;;3.55;;
9964;SDS011;5023;53.554;9.964;2022-08-21T19:52:52;9.40;;;3.90;;
9964;SDS011;5023;53.554;9.964;2022-08-21T19:58:23;12.10;;;6.75;;
9964;SDS011;5023;53.554;9.964;2022-08-21T20:03:33;4.75;;;3.55;;
9964;SDS011;5023;53.554;9.964;2022-08-21T20:08:42;8.32;;;5.55;;
9964;SDS011;5023;53.554;9.964;2022-08-21T20:14:41;9.20;;;4.40;;
9964;SDS011;5023;53.554;9.964;2022-08-21T20:19:45;10.50;;;6.13;;
9964;SDS011;5023;53.554;9.964;2022-08-21T20:25:06;10.23;;;7.03;;
9964;SDS011;5023;53.554;9.964;2022-08-21T20:30:27;10.27;;;7.75;;
9964;SDS011;5023;53.554;9.964;2022-08-21T20:35:33;13.27;;;11.85;;
9964;SDS011;5023;53.554;9.964;2022-08-21T20:40:41;14.80;;;11.40;;
9964;SDS011;5023;53.554;9.964;2022-08-21T20:46:26;8.70;;;3.90;;
9964;SDS011;5023;53.554;9.964;2022-08-21T20:51:39;9.45;;;5.72;;
9964;SDS011;5023;53.554;9.964;2022-08-21T20:57:02;8.38;;;4.32;;
9964;SDS011;5023;53.554;9.964;2022-08-21T21:02:44;8.60;;;4.40;;
9964;SDS011;5023;53.554;9.964;2022-08-21T21:08:52;5.72;;;3.55;;
9964;SDS011;5023;53.554;9.964;2022-08-21T21:14:15;9.32;;;5.78;;
9964;SDS011;5023;53.554;9.964;2022-08-21T21:19:47;14.30;;;9.75;;
9964;SDS011;5023;53.554;9.964;2022-08-21T21:25:12;7.82;;;5.10;;
9964;SDS011;5023;53.554;9.964;2022-08-21T21:30:53;7.72;;;5.60;;
9964;SDS011;5023;53.554;9.964;2022-08-21T21:36:36;6.40;;;3.70;;
9964;SDS011;5023;53.554;9.964;2022-08-21T21:42:32;9.15;;;7.25;;
9964;SDS011;5023;53.554;9.964;2022-08-21T21:48:19;8.98;;;5.25;;
9964;SDS011;5023;53.554;9.964;2022-08-21T21:54:14;9.98;;;4.53;;
9964;SDS011;5023;53.554;9.964;2022-08-21T22:00:00;7.53;;;4.78;;
9964;SDS011;5023;53.554;9.964;2022-08-21T22:05:55;6.38;;;3.38;;
9964;SDS011;5023;53.554;9.964;2022-08-21T22:11:36;7.88;;;3.67;;
9964;SDS011;5023;53.554;9.964;2022-08-21T22:17:35;6.20;;;3.10;;
9964;SDS011;5023;53.554;9.964;2022-08-21T22:23:04;8.10;;;3.72;;
9964;SDS011;5023;53.554;9.964;2022-08-21T22:28:13;10.32;;;3.60;;
9964;SDS011;5023;53.554;9.964;2022-08-21T22:33:29;6.28;;;3.15;;
9964;SDS011;5023;53.554;9.964;2022-08-21T22:38:56;5.72;;;3.10;;
9964;SDS011;5023;53.554;9.964;2022-08-21T22:44:03;7.85;;;4.50;;
9964;SDS011;5023;53.554;9.964;2022-08-21T22:49:27;6.30;;;3.75;;
9964;SDS011;5023;53.554;9.964;2022-08-21T22:55:17;8.07;;;3.47;;
9964;SDS011;5023;53.554;9.964;2022-08-21T23:01:28;7.07;;;3.88;;
9964;SDS011;5023;53.554;9.964;2022-08-21T23:06:54;6.72;;;2.92;;
9964;SDS011;5023;53.554;9.964;2022-08-21T23:12:00;9.00;;;3.53;;
9964;SDS011;5023;53.554;9.964;2022-08-21T23:17:19;5.45;;;3.42;;
9964;SDS011;5023;53.554;9.964;2022-08-21T23:22:34;6.90;;;3.03;;
9964;SDS011;5023;53.554;9.964;2022-08-21T23:27:50;6.47;;;2.85;;
9964;SDS011;5023;53.554;9.964;2022-08-21T23:33:42;5.72;;;3.10;;
9964;SDS011;5023;53.554;9.964;2022-08-21T23:39:19;9.40;;;3.92;;
9964;SDS011;5023;53.554;9.964;2022-08-21T23:44:54;7.43;;;3.40;;
9964;SDS011;5023;53.554;9.964;2022-08-21T23:50:04;5.85;;;2.85;;
9964;SDS011;5023;53.554;9.964;2022-08-21T23:55:15;5.05;;;3.30;;
